createdAt,value
2022-12-18T00:01:08.777Z,37.55
2022-12-18T00:03:36.679Z,42.22
2022-12-18T00:06:03.595Z,37.30
2022-12-18T00:08:30.179Z,37.60
2022-12-18T00:11:03.913Z,38.63
2022-12-18T00:13:34.169Z,37.22
2022-12-18T00:16:06.357Z,40.53
2022-12-18T00:18:33.519Z,35.25
2022-12-18T00:21:02.504Z,45.20
2022-12-18T00:23:30.600Z,42.67
2022-12-18T00:26:05.264Z,40.28
2022-12-18T00:28:31.995Z,39.03
2022-12-18T00:31:04.384Z,38.97
2022-12-18T00:33:31.615Z,38.60
2022-12-18T00:36:04.576Z,39.70
2022-12-18T00:38:32.974Z,36.65
2022-12-18T00:40:59.699Z,35.22
2022-12-18T00:43:27.447Z,36.17
2022-12-18T00:45:54.502Z,42.35
2022-12-18T00:48:21.306Z,37.95
2022-12-18T00:50:50.262Z,38.97
2022-12-18T00:53:17.319Z,32.10
2022-12-18T00:55:44.605Z,41.63
2022-12-18T00:58:12.708Z,32.05
2022-12-18T01:00:39.643Z,35.33
2022-12-18T01:03:06.932Z,31.90
2022-12-18T01:05:33.851Z,34.00
2022-12-18T01:08:00.980Z,33.65
2022-12-18T01:10:27.608Z,34.28
2022-12-18T01:12:57.897Z,34.22
2022-12-18T01:15:24.565Z,39.20
2022-12-18T01:17:54.233Z,34.20
2022-12-18T01:20:21.422Z,37.67
2022-12-18T01:22:47.979Z,34.90
2022-12-18T01:25:14.750Z,36.22
2022-12-18T01:27:41.364Z,32.35
2022-12-18T01:30:08.430Z,30.58
2022-12-18T01:32:35.110Z,30.85
2022-12-18T01:35:02.565Z,31.85
2022-12-18T01:37:29.183Z,37.60
2022-12-18T01:39:56.501Z,36.13
2022-12-18T01:42:23.112Z,35.22
2022-12-18T01:45:06.894Z,31.58
2022-12-18T01:47:36.499Z,36.45
2022-12-18T01:50:08.699Z,36.05
2022-12-18T01:52:41.884Z,33.70
2022-12-18T01:55:10.354Z,33.55
2022-12-18T01:57:38.975Z,33.30
2022-12-18T02:00:18.613Z,32.67
2022-12-18T02:02:47.329Z,28.92
2022-12-18T02:05:18.802Z,34.47
2022-12-18T02:08:15.235Z,31.17
2022-12-18T02:11:05.624Z,35.13
2022-12-18T02:13:35.931Z,34.97
2022-12-18T02:16:23.015Z,33.05
2022-12-18T02:18:55.429Z,31.63
2022-12-18T02:24:11.094Z,32.67
2022-12-18T02:26:51.294Z,30.40
2022-12-18T02:29:32.571Z,32.65
2022-12-18T02:32:05.599Z,30.42
2022-12-18T02:34:37.122Z,29.90
2022-12-18T02:37:12.554Z,30.80
2022-12-18T02:39:42.843Z,31.27
2022-12-18T02:42:12.820Z,37.00
2022-12-18T02:44:49.264Z,35.85
2022-12-18T02:47:23.450Z,29.23
2022-12-18T02:49:59.265Z,31.15
2022-12-18T02:52:35.990Z,32.53
2022-12-18T02:55:23.291Z,29.60
2022-12-18T02:58:07.995Z,34.10
2022-12-18T03:00:42.540Z,31.38
2022-12-18T03:03:17.733Z,32.15
2022-12-18T03:06:05.851Z,32.50
2022-12-18T03:08:40.241Z,39.40
2022-12-18T03:11:12.634Z,29.65
2022-12-18T03:13:42.922Z,38.15
2022-12-18T03:16:18.878Z,25.13
2022-12-18T03:19:07.766Z,27.48
2022-12-18T03:22:03.189Z,29.58
2022-12-18T03:24:40.546Z,31.40
2022-12-18T03:27:14.884Z,33.28
2022-12-18T03:29:50.029Z,28.65
2022-12-18T03:32:27.250Z,31.67
2022-12-18T03:34:59.470Z,33.08
2022-12-18T03:37:34.068Z,36.08
2022-12-18T03:40:00.862Z,29.63
2022-12-18T03:42:46.669Z,36.13
2022-12-18T03:45:20.128Z,32.15
2022-12-18T03:48:30.088Z,31.00
2022-12-18T03:51:07.018Z,34.22
2022-12-18T03:53:58.787Z,31.77
2022-12-18T03:56:34.474Z,32.42
2022-12-18T03:59:04.039Z,34.50
2022-12-18T04:01:40.061Z,30.73
2022-12-18T04:04:09.609Z,29.33
2022-12-18T04:06:39.708Z,28.80
2022-12-18T04:09:08.701Z,31.55
2022-12-18T04:11:41.769Z,24.33
2022-12-18T04:14:09.914Z,24.75
2022-12-18T04:16:38.760Z,26.60
2022-12-18T04:19:09.284Z,24.67
2022-12-18T04:21:40.129Z,26.95
2022-12-18T04:24:07.705Z,27.48
2022-12-18T04:26:36.495Z,27.95
2022-12-18T04:29:16.361Z,27.10
2022-12-18T04:31:43.066Z,23.90
2022-12-18T04:34:10.184Z,28.20
2022-12-18T04:36:42.881Z,28.83
2022-12-18T04:39:09.732Z,24.15
2022-12-18T04:41:36.475Z,23.13
2022-12-18T04:44:04.421Z,24.67
2022-12-18T04:46:31.195Z,26.05
2022-12-18T04:48:57.850Z,26.55
2022-12-18T04:51:26.627Z,24.90
2022-12-18T04:53:54.204Z,27.50
2022-12-18T04:56:20.917Z,26.70
2022-12-18T04:58:47.683Z,23.42
2022-12-18T05:01:16.927Z,24.30
2022-12-18T05:03:44.392Z,21.83
2022-12-18T05:06:11.674Z,21.90
2022-12-18T05:08:38.407Z,23.95
2022-12-18T05:11:10.672Z,23.35
2022-12-18T05:13:39.220Z,21.25
2022-12-18T05:16:07.373Z,22.60
2022-12-18T05:18:34.834Z,25.15
2022-12-18T05:21:01.927Z,21.85
2022-12-18T05:23:29.261Z,24.10
2022-12-18T05:26:04.652Z,23.95
2022-12-18T05:28:32.994Z,22.27
2022-12-18T05:31:01.767Z,20.50
2022-12-18T05:33:32.040Z,24.80
2022-12-18T05:36:03.472Z,24.13
2022-12-18T05:38:32.019Z,24.10
2022-12-18T05:40:59.116Z,21.00
2022-12-18T05:43:26.830Z,22.35
2022-12-18T05:45:54.557Z,25.02
2022-12-18T05:48:22.234Z,23.83
2022-12-18T05:50:50.690Z,25.85
2022-12-18T05:53:20.372Z,25.42
2022-12-18T05:55:47.766Z,25.25
2022-12-18T05:58:15.527Z,20.55
2022-12-18T06:00:45.633Z,23.10
2022-12-18T06:03:13.614Z,22.17
2022-12-18T06:05:43.222Z,25.98
2022-12-18T06:08:10.522Z,26.80
2022-12-18T06:10:37.943Z,25.13
2022-12-18T06:13:04.963Z,21.73
2022-12-18T06:15:31.648Z,23.48
2022-12-18T06:17:58.862Z,24.02
2022-12-18T06:20:30.408Z,23.42
2022-12-18T06:22:59.832Z,24.73
2022-12-18T06:25:26.440Z,29.08
2022-12-18T06:27:53.126Z,20.33
2022-12-18T06:30:20.245Z,25.77
2022-12-18T06:32:50.506Z,25.23
2022-12-18T06:35:19.728Z,22.35
2022-12-18T06:37:47.987Z,21.40
2022-12-18T06:40:14.586Z,23.80
2022-12-18T06:42:41.235Z,27.85
2022-12-18T06:45:08.766Z,26.05
2022-12-18T06:47:35.491Z,22.25
2022-12-18T06:50:02.189Z,24.10
2022-12-18T06:52:28.838Z,26.08
2022-12-18T06:54:55.581Z,26.63
2022-12-18T06:57:22.313Z,24.50
2022-12-18T06:59:48.966Z,26.48
2022-12-18T07:02:16.043Z,23.85
2022-12-18T07:04:42.851Z,27.42
2022-12-18T07:07:09.433Z,25.77
2022-12-18T07:09:36.229Z,24.80
2022-12-18T07:12:02.928Z,27.15
2022-12-18T07:14:29.686Z,26.08
2022-12-18T07:16:56.750Z,27.85
2022-12-18T07:19:26.653Z,26.02
2022-12-18T07:21:53.392Z,22.70
2022-12-18T07:24:20.148Z,21.77
2022-12-18T07:26:47.804Z,26.70
2022-12-18T07:29:14.379Z,23.77
2022-12-18T07:31:41.108Z,26.83
2022-12-18T07:34:12.775Z,26.25
2022-12-18T07:36:39.994Z,23.02
2022-12-18T07:39:06.821Z,26.52
2022-12-18T07:41:33.462Z,23.63
2022-12-18T07:44:11.614Z,29.10
2022-12-18T07:46:38.517Z,23.10
2022-12-18T07:49:05.409Z,26.60
2022-12-18T07:51:32.164Z,23.33
2022-12-18T07:53:58.978Z,23.55
2022-12-18T07:56:27.694Z,25.70
2022-12-18T07:58:55.704Z,28.92
2022-12-18T08:01:22.524Z,22.75
2022-12-18T08:03:49.918Z,25.27
2022-12-18T08:06:19.131Z,26.85
2022-12-18T08:08:45.816Z,21.50
2022-12-18T08:11:12.517Z,24.27
2022-12-18T08:13:39.577Z,24.02
2022-12-18T08:16:08.345Z,27.05
2022-12-18T08:18:37.528Z,25.17
2022-12-18T08:21:25.019Z,21.20
2022-12-18T08:23:53.407Z,27.25
2022-12-18T08:26:20.853Z,22.08
2022-12-18T08:28:48.489Z,23.75
2022-12-18T08:31:16.173Z,20.92
2022-12-18T08:33:43.723Z,19.85
2022-12-18T08:36:11.676Z,20.60
2022-12-18T08:38:38.880Z,20.60
2022-12-18T08:41:11.938Z,19.77
2022-12-18T08:43:57.615Z,23.33
2022-12-18T08:46:26.291Z,21.02
2022-12-18T08:48:54.424Z,23.90
2022-12-18T08:51:21.760Z,19.48
2022-12-18T08:53:48.727Z,22.00
2022-12-18T08:56:16.683Z,19.63
2022-12-18T08:58:44.449Z,23.70
2022-12-18T09:01:13.263Z,20.35
2022-12-18T09:03:41.431Z,19.17
2022-12-18T09:06:09.504Z,20.35
2022-12-18T09:08:38.033Z,17.75
2022-12-18T09:11:05.426Z,19.35
2022-12-18T09:13:32.305Z,19.25
2022-12-18T09:15:59.582Z,17.80
2022-12-18T09:18:26.367Z,18.23
2022-12-18T09:20:54.217Z,16.20
2022-12-18T09:23:22.580Z,17.38
2022-12-18T09:25:49.509Z,16.92
2022-12-18T09:28:19.290Z,15.98
2022-12-18T09:30:51.186Z,12.95
2022-12-18T09:33:18.688Z,15.00
2022-12-18T09:35:47.463Z,18.15
2022-12-18T09:38:16.889Z,17.95
2022-12-18T09:40:57.003Z,16.50
2022-12-18T09:43:35.032Z,16.75
2022-12-18T09:46:08.042Z,15.93
2022-12-18T09:48:43.228Z,15.10
2022-12-18T09:51:19.527Z,15.65
2022-12-18T09:53:52.863Z,16.90
2022-12-18T09:56:23.782Z,15.15
2022-12-18T09:58:54.880Z,15.20
2022-12-18T10:01:25.326Z,11.73
2022-12-18T10:03:54.513Z,13.52
2022-12-18T10:06:21.267Z,15.02
2022-12-18T10:09:11.538Z,15.50
2022-12-18T10:15:03.397Z,13.13
2022-12-18T10:17:49.988Z,14.07
2022-12-18T10:20:45.279Z,16.17
2022-12-18T10:23:15.027Z,14.82
2022-12-18T10:25:44.319Z,19.17
2022-12-18T10:28:15.016Z,14.98
2022-12-18T10:30:43.449Z,13.15
2022-12-18T10:33:21.988Z,12.80
2022-12-18T10:35:54.018Z,11.85
2022-12-18T10:38:30.701Z,14.13
2022-12-18T10:41:06.146Z,15.05
2022-12-18T10:43:38.724Z,14.13
2022-12-18T10:46:11.250Z,18.80
2022-12-18T10:48:42.235Z,15.10
2022-12-18T10:51:12.161Z,13.10
2022-12-18T10:53:43.145Z,9.95
2022-12-18T10:56:10.373Z,12.25
2022-12-18T10:58:39.707Z,17.15
2022-12-18T11:01:14.366Z,13.80
2022-12-18T11:03:47.682Z,13.23
2022-12-18T11:06:20.249Z,13.75
2022-12-18T11:09:19.811Z,15.95
2022-12-18T11:11:53.370Z,11.57
2022-12-18T11:14:35.196Z,13.18
2022-12-18T11:17:24.971Z,14.45
2022-12-18T11:19:57.764Z,14.52
2022-12-18T11:22:28.852Z,13.10
2022-12-18T11:25:33.383Z,12.20
2022-12-18T11:28:03.438Z,10.70
2022-12-18T11:30:36.238Z,10.15
2022-12-18T11:33:22.975Z,12.85
2022-12-18T11:35:54.623Z,14.15
2022-12-18T11:38:21.472Z,13.02
2022-12-18T11:40:57.472Z,10.80
2022-12-18T11:43:38.090Z,12.38
2022-12-18T11:46:19.373Z,13.50
2022-12-18T11:48:59.281Z,13.10
2022-12-18T11:51:49.565Z,12.82
2022-12-18T11:54:17.075Z,12.43
2022-12-18T11:57:15.967Z,13.35
2022-12-18T12:00:02.039Z,12.25
2022-12-18T12:03:04.068Z,12.38
2022-12-18T12:05:49.172Z,12.20
2022-12-18T12:08:18.846Z,12.85
2022-12-18T12:10:51.474Z,14.20
2022-12-18T12:13:36.710Z,14.18
2022-12-18T12:16:15.698Z,13.18
2022-12-18T12:19:11.539Z,11.60
2022-12-18T12:21:54.728Z,10.48
2022-12-18T12:24:27.056Z,11.40
2022-12-18T12:27:00.770Z,9.48
2022-12-18T12:29:52.762Z,12.73
2022-12-18T12:32:26.367Z,15.40
2022-12-18T12:35:20.908Z,12.90
2022-12-18T12:38:16.990Z,14.18
2022-12-18T12:40:58.582Z,13.43
2022-12-18T12:43:46.116Z,11.27
2022-12-18T12:46:33.634Z,13.00
2022-12-18T12:49:04.947Z,17.80
2022-12-18T12:51:41.828Z,11.13
2022-12-18T12:54:18.496Z,13.52
2022-12-18T12:57:06.975Z,11.98
2022-12-18T12:59:41.129Z,11.52
2022-12-18T13:02:45.475Z,11.20
2022-12-18T13:05:18.947Z,17.20
2022-12-18T13:07:51.316Z,13.90
2022-12-18T13:10:19.043Z,12.13
2022-12-18T13:12:56.735Z,12.65
2022-12-18T13:15:33.564Z,13.60
2022-12-18T13:18:26.727Z,13.95
2022-12-18T13:21:02.975Z,11.73
2022-12-18T13:23:40.796Z,16.52
2022-12-18T13:26:08.653Z,11.05
2022-12-18T13:28:47.085Z,10.38
2022-12-18T13:31:32.915Z,10.27
2022-12-18T13:34:27.853Z,12.50
2022-12-18T13:36:58.310Z,12.15
2022-12-18T13:39:35.260Z,12.63
2022-12-18T13:42:05.873Z,11.40
2022-12-18T13:47:38.490Z,11.95
2022-12-18T13:50:23.725Z,16.80
2022-12-18T13:52:52.111Z,14.15
2022-12-18T13:55:21.745Z,12.88
2022-12-18T13:57:48.447Z,15.18
2022-12-18T14:00:29.670Z,15.07
2022-12-18T14:02:58.483Z,14.43
2022-12-18T14:05:30.782Z,13.75
2022-12-18T14:08:07.762Z,14.00
2022-12-18T14:10:48.586Z,12.25
2022-12-18T14:13:28.982Z,12.60
2022-12-18T14:15:57.389Z,14.80
2022-12-18T14:18:32.110Z,15.57
2022-12-18T14:21:01.243Z,14.00
2022-12-18T14:23:41.250Z,12.55
2022-12-18T14:26:26.380Z,12.73
2022-12-18T14:28:54.829Z,13.18
2022-12-18T14:31:24.424Z,14.85
2022-12-18T14:33:52.047Z,14.73
2022-12-18T14:36:21.892Z,13.05
2022-12-18T14:38:56.704Z,15.35
2022-12-18T14:41:24.997Z,13.00
2022-12-18T14:43:53.660Z,14.43
2022-12-18T14:46:37.348Z,13.00
2022-12-18T14:49:05.844Z,12.50
2022-12-18T14:51:35.984Z,11.45
2022-12-18T14:54:09.308Z,12.05
2022-12-18T14:56:43.458Z,12.73
2022-12-18T14:59:24.732Z,13.50
2022-12-18T15:01:54.854Z,12.82
2022-12-18T15:04:28.211Z,11.77
2022-12-18T15:07:24.636Z,14.75
2022-12-18T15:10:15.462Z,12.05
2022-12-18T15:12:50.672Z,15.15
2022-12-18T15:15:38.912Z,12.35
2022-12-18T15:18:32.839Z,16.42
2022-12-18T15:21:09.349Z,15.48
2022-12-18T15:23:45.288Z,14.70
2022-12-18T15:26:14.063Z,11.70
2022-12-18T15:28:48.659Z,13.73
2022-12-18T15:31:16.209Z,10.82
2022-12-18T15:34:01.798Z,14.65
2022-12-18T15:36:31.672Z,11.70
2022-12-18T15:39:05.072Z,12.55
2022-12-18T15:41:36.129Z,12.05
2022-12-18T15:44:04.519Z,11.18
2022-12-18T15:46:32.181Z,19.13
2022-12-18T15:49:02.328Z,13.48
2022-12-18T15:51:34.304Z,13.15
2022-12-18T15:54:05.244Z,16.95
2022-12-18T15:56:50.995Z,12.00
2022-12-18T15:59:20.703Z,12.70
2022-12-18T16:01:49.800Z,14.10
2022-12-18T16:04:21.732Z,14.52
2022-12-18T16:09:37.446Z,15.65
2022-12-18T16:12:05.187Z,12.25
2022-12-18T16:14:33.080Z,14.25
2022-12-18T16:17:03.020Z,14.13
2022-12-18T16:19:30.628Z,15.32
2022-12-18T16:21:59.486Z,15.02
2022-12-18T16:24:29.095Z,12.50
2022-12-18T16:27:00.300Z,15.00
2022-12-18T16:29:29.083Z,13.35
2022-12-18T16:31:57.413Z,12.80
2022-12-18T16:34:36.145Z,14.52
2022-12-18T16:37:06.493Z,13.32
2022-12-18T16:39:37.949Z,12.15
2022-12-18T16:42:17.949Z,14.52
2022-12-18T16:44:45.470Z,11.32
2022-12-18T16:47:15.186Z,15.40
2022-12-18T16:49:43.012Z,13.68
2022-12-18T16:52:09.787Z,14.00
2022-12-18T16:54:36.988Z,13.77
2022-12-18T16:57:05.601Z,14.63
2022-12-18T16:59:35.743Z,16.17
2022-12-18T17:02:12.091Z,15.18
2022-12-18T17:04:38.958Z,12.60
2022-12-18T17:07:05.730Z,13.90
2022-12-18T17:09:32.567Z,16.40
2022-12-18T17:12:03.945Z,14.60
2022-12-18T17:14:32.800Z,13.45
2022-12-18T17:19:50.400Z,14.45
2022-12-18T17:22:17.272Z,12.77
2022-12-18T17:24:44.114Z,14.23
2022-12-18T17:27:11.187Z,13.98
2022-12-18T17:29:41.268Z,12.25
2022-12-18T17:32:13.510Z,15.60
2022-12-18T17:34:40.933Z,14.98
2022-12-18T17:37:08.327Z,15.90
2022-12-18T17:39:35.103Z,14.55
2022-12-18T17:42:01.903Z,15.55
2022-12-18T17:44:28.811Z,12.68
2022-12-18T17:46:56.003Z,12.88
2022-12-18T17:49:22.851Z,13.35
2022-12-18T17:51:49.759Z,13.43
2022-12-18T17:54:16.653Z,12.18
2022-12-18T17:56:43.595Z,14.20
2022-12-18T17:59:10.878Z,15.20
2022-12-18T18:01:44.129Z,16.42
2022-12-18T18:04:12.341Z,17.80
2022-12-18T18:06:39.585Z,13.55
2022-12-18T18:09:11.176Z,15.13
2022-12-18T18:12:05.536Z,16.65
2022-12-18T18:14:33.150Z,13.95
2022-12-18T18:17:04.442Z,15.07
2022-12-18T18:19:33.252Z,17.42
2022-12-18T18:22:00.244Z,17.02
2022-12-18T18:24:27.049Z,17.70
2022-12-18T18:26:59.680Z,19.05
2022-12-18T18:29:27.920Z,15.32
2022-12-18T18:31:56.085Z,13.77
2022-12-18T18:34:31.250Z,15.93
2022-12-18T18:37:02.080Z,16.15
2022-12-18T18:39:29.499Z,17.55
2022-12-18T18:41:56.403Z,17.75
2022-12-18T18:44:25.656Z,15.85
2022-12-18T18:46:56.783Z,14.55
2022-12-18T18:49:27.193Z,14.00
2022-12-18T18:51:57.881Z,19.02
2022-12-18T18:54:25.892Z,16.40
2022-12-18T18:59:39.765Z,16.52
2022-12-18T19:02:09.311Z,17.92
2022-12-18T19:04:37.506Z,18.67
2022-12-18T19:07:10.987Z,16.77
2022-12-18T19:09:38.499Z,15.82
2022-12-18T19:12:23.806Z,17.50
2022-12-18T19:14:50.507Z,17.55
2022-12-18T19:17:17.180Z,16.25
2022-12-18T19:19:44.018Z,19.10
2022-12-18T19:22:11.514Z,17.83
2022-12-18T19:24:38.483Z,17.85
2022-12-18T19:27:05.216Z,17.02
2022-12-18T19:29:32.015Z,16.50
2022-12-18T19:31:58.898Z,14.60
2022-12-18T19:34:25.649Z,17.58
2022-12-18T19:36:57.943Z,20.63
2022-12-18T19:39:26.599Z,21.27
2022-12-18T19:41:53.356Z,19.98
2022-12-18T19:44:21.063Z,17.55
2022-12-18T19:46:51.594Z,18.65
2022-12-18T19:49:18.473Z,17.38
2022-12-18T19:51:46.478Z,15.98
2022-12-18T19:54:16.923Z,15.27
2022-12-18T19:56:45.082Z,19.70
2022-12-18T19:59:11.996Z,15.27
2022-12-18T20:01:38.773Z,19.60
2022-12-18T20:04:05.959Z,19.75
2022-12-18T20:06:45.287Z,17.27
2022-12-18T20:09:12.164Z,19.38
2022-12-18T20:11:41.496Z,20.98
2022-12-18T20:14:10.482Z,22.00
2022-12-18T20:16:37.471Z,17.17
2022-12-18T20:19:05.443Z,15.65
2022-12-18T20:21:32.248Z,19.40
2022-12-18T20:24:00.224Z,18.25
2022-12-18T20:26:26.930Z,17.35
2022-12-18T20:28:54.866Z,15.45
2022-12-18T20:31:22.232Z,17.25
2022-12-18T20:33:49.916Z,18.30
2022-12-18T20:36:21.448Z,17.52
2022-12-18T20:38:57.222Z,19.55
2022-12-18T20:41:26.287Z,19.05
2022-12-18T20:43:56.085Z,14.18
2022-12-18T20:46:22.962Z,17.17
2022-12-18T20:48:49.660Z,17.52
2022-12-18T20:51:19.355Z,20.80
2022-12-18T20:53:47.090Z,19.42
2022-12-18T20:56:18.903Z,16.25
2022-12-18T20:58:49.580Z,18.33
2022-12-18T21:01:19.611Z,18.80
2022-12-18T21:03:47.591Z,21.10
2022-12-18T21:06:16.606Z,22.85
2022-12-18T21:08:43.511Z,17.63
2022-12-18T21:11:40.941Z,19.38
2022-12-18T21:14:17.276Z,17.52
2022-12-18T21:16:44.843Z,19.30
2022-12-18T21:19:13.711Z,18.00
2022-12-18T21:21:40.717Z,15.88
2022-12-18T21:24:09.696Z,16.48
2022-12-18T21:26:41.873Z,19.38
2022-12-18T21:29:22.316Z,20.42
2022-12-18T21:31:49.791Z,14.65
2022-12-18T21:34:23.290Z,18.27
2022-12-18T21:36:50.032Z,17.05
2022-12-18T21:39:17.801Z,19.40
2022-12-18T21:42:05.443Z,21.38
2022-12-18T21:44:38.874Z,18.38
2022-12-18T21:47:21.951Z,17.73
2022-12-18T21:49:51.337Z,15.90
2022-12-18T21:52:18.253Z,18.80
2022-12-18T21:54:45.002Z,17.90
2022-12-18T21:57:13.925Z,20.25
2022-12-18T21:59:42.418Z,19.65
2022-12-18T22:02:21.084Z,18.85
2022-12-18T22:04:48.850Z,18.80
2022-12-18T22:07:16.653Z,16.13
2022-12-18T22:09:43.532Z,16.73
2022-12-18T22:12:13.225Z,16.95
2022-12-18T22:14:40.008Z,16.98
2022-12-18T22:17:06.692Z,21.02
2022-12-18T22:19:38.087Z,19.90
2022-12-18T22:22:09.623Z,19.65
2022-12-18T22:24:36.296Z,18.50
2022-12-18T22:27:02.993Z,18.67
2022-12-18T22:29:48.185Z,15.18
2022-12-18T22:32:29.441Z,17.50
2022-12-18T22:35:03.110Z,20.92
2022-12-18T22:37:32.907Z,17.27
2022-12-18T22:39:59.522Z,18.95
2022-12-18T22:42:30.839Z,18.55
2022-12-18T22:44:57.533Z,18.23
2022-12-18T22:47:29.217Z,18.90
2022-12-18T22:49:56.581Z,16.77
2022-12-18T22:52:24.795Z,15.00
2022-12-18T22:54:53.605Z,17.40
2022-12-18T22:57:21.732Z,16.70
2022-12-18T22:59:49.161Z,16.38
2022-12-18T23:02:16.611Z,16.45
2022-12-18T23:04:43.336Z,16.67
2022-12-18T23:07:09.997Z,16.98
2022-12-18T23:09:38.073Z,19.83
2022-12-18T23:12:05.107Z,16.63
2022-12-18T23:14:32.050Z,20.45
2022-12-18T23:16:58.865Z,17.45
2022-12-18T23:19:26.381Z,16.15
2022-12-18T23:21:53.009Z,21.27
2022-12-18T23:24:21.804Z,20.02
2022-12-18T23:26:48.446Z,18.63
2022-12-18T23:29:15.082Z,17.50
2022-12-18T23:31:41.745Z,17.25
2022-12-18T23:34:08.836Z,16.52
2022-12-18T23:36:46.218Z,24.10
2022-12-18T23:42:00.416Z,19.65
2022-12-18T23:44:27.158Z,20.05
2022-12-18T23:46:54.027Z,19.58
2022-12-18T23:49:20.672Z,19.25
2022-12-18T23:51:47.319Z,16.95
2022-12-18T23:54:13.915Z,18.92
2022-12-18T23:56:40.479Z,18.40
2022-12-18T23:59:07.062Z,19.55
